sensor_id;sensor_type;location;lat;lon;timestamp;noise_LAeq;noise_LA_min;noise_LA_max;noise_LA01;noise_LA95
60031;Laerm;45901;47.600;9.890;2023-04-30T00:00:59;40.08;37.70;44.62;;
60031;Laerm;45901;47.600;9.890;2023-04-30T00:03:27;39.94;37.88;41.61;;
60031;Laerm;45901;47.600;9.890;2023-04-30T00:05:54;40.01;38.21;41.96;;
60031;Laerm;45901;47.600;9.890;2023-04-30T00:08:22;39.93;38.21;41.53;;
60031;Laerm;45901;47.600;9.890;2023-04-30T00:10:51;39.95;38.18;41.61;;
60031;Laerm;45901;47.600;9.890;2023-04-30T00:13:18;39.98;38.05;41.61;;
60031;Laerm;45901;47.600;9.890;2023-04-30T00:15:46;40.02;38.05;42.98;;
60031;Laerm;45901;47.600;9.890;2023-04-30T00:18:13;40.01;36.69;41.61;;
60031;Laerm;45901;47.600;9.890;2023-04-30T00:20:40;40.05;38.05;41.53;;
60031;Laerm;45901;47.600;9.890;2023-04-30T00:23:08;40.05;38.05;41.81;;
60031;Laerm;45901;47.600;9.890;2023-04-30T00:25:35;40.08;38.05;41.68;;
60031;Laerm;45901;47.600;9.890;2023-04-30T00:28:04;40.06;38.05;41.68;;
60031;Laerm;45901;47.600;9.890;2023-04-30T00:30:32;40.06;38.05;43.49;;
60031;Laerm;45901;47.600;9.890;2023-04-30T00:32:59;40.02;38.21;41.46;;
60031;Laerm;45901;47.600;9.890;2023-04-30T00:35:27;40.02;37.88;41.68;;
60031;Laerm;45901;47.600;9.890;2023-04-30T00:37:54;40.02;38.21;41.75;;
60031;Laerm;45901;47.600;9.890;2023-04-30T00:40:21;39.98;37.88;41.53;;
60031;Laerm;45901;47.600;9.890;2023-04-30T00:42:49;39.99;37.88;41.53;;
60031;Laerm;45901;47.600;9.890;2023-04-30T00:45:19;40.05;38.05;44.19;;
60031;Laerm;45901;47.600;9.890;2023-04-30T00:47:47;39.99;37.52;41.61;;
60031;Laerm;45901;47.600;9.890;2023-04-30T00:50:15;40.00;37.70;41.61;;
60031;Laerm;45901;47.600;9.890;2023-04-30T00:52:42;39.97;37.88;41.38;;
60031;Laerm;45901;47.600;9.890;2023-04-30T00:55:11;39.97;38.05;41.46;;
60031;Laerm;45901;47.600;9.890;2023-04-30T00:57:39;39.99;37.88;41.68;;
60031;Laerm;45901;47.600;9.890;2023-04-30T01:00:08;40.13;37.88;44.69;;
60031;Laerm;45901;47.600;9.890;2023-04-30T01:02:37;39.97;37.70;41.68;;
60031;Laerm;45901;47.600;9.890;2023-04-30T01:05:06;39.97;37.88;41.46;;
60031;Laerm;45901;47.600;9.890;2023-04-30T01:07:35;39.98;38.05;41.46;;
60031;Laerm;45901;47.600;9.890;2023-04-30T01:10:04;39.97;38.05;41.38;;
60031;Laerm;45901;47.600;9.890;2023-04-30T01:12:40;39.99;38.05;41.46;;
60031;Laerm;45901;47.600;9.890;2023-04-30T01:15:16;40.01;38.21;42.53;;
60031;Laerm;45901;47.600;9.890;2023-04-30T01:17:54;40.00;38.21;41.55;;
60031;Laerm;45901;47.600;9.890;2023-04-30T01:20:23;39.98;37.88;41.61;;
60031;Laerm;45901;47.600;9.890;2023-04-30T01:22:59;39.97;37.70;41.38;;
60031;Laerm;45901;47.600;9.890;2023-04-30T01:25:52;39.92;38.05;41.61;;
60031;Laerm;45901;47.600;9.890;2023-04-30T01:28:22;39.91;37.88;41.61;;
60031;Laerm;45901;47.600;9.890;2023-04-30T01:30:50;39.97;38.05;43.19;;
60031;Laerm;45901;47.600;9.890;2023-04-30T01:33:18;39.99;38.21;42.76;;
60031;Laerm;45901;47.600;9.890;2023-04-30T01:36:12;39.97;38.05;41.68;;
60031;Laerm;45901;47.600;9.890;2023-04-30T01:39:16;39.95;37.88;41.61;;
60031;Laerm;45901;47.600;9.890;2023-04-30T01:41:53;39.94;37.88;41.53;;
60031;Laerm;45901;47.600;9.890;2023-04-30T01:44:48;39.99;38.21;43.29;;
60031;Laerm;45901;47.600;9.890;2023-04-30T01:47:32;39.98;38.05;41.53;;
60031;Laerm;45901;47.600;9.890;2023-04-30T01:50:14;39.98;38.05;41.46;;
60031;Laerm;45901;47.600;9.890;2023-04-30T01:52:49;39.95;37.88;42.06;;
60031;Laerm;45901;47.600;9.890;2023-04-30T01:55:23;39.95;37.88;41.46;;
60031;Laerm;45901;47.600;9.890;2023-04-30T01:57:56;39.96;37.88;41.53;;
60031;Laerm;45901;47.600;9.890;2023-04-30T02:00:27;40.06;37.88;44.65;;
60031;Laerm;45901;47.600;9.890;2023-04-30T02:02:55;39.92;37.52;41.53;;
60031;Laerm;45901;47.600;9.890;2023-04-30T02:05:23;39.94;37.88;41.96;;
60031;Laerm;45901;47.600;9.890;2023-04-30T02:07:51;39.90;37.32;41.53;;
60031;Laerm;45901;47.600;9.890;2023-04-30T02:10:21;39.90;38.05;41.46;;
60031;Laerm;45901;47.600;9.890;2023-04-30T02:12:49;39.86;37.70;41.30;;
60031;Laerm;45901;47.600;9.890;2023-04-30T02:15:17;39.87;38.05;42.09;;
60031;Laerm;45901;47.600;9.890;2023-04-30T02:17:46;39.87;37.52;41.46;;
60031;Laerm;45901;47.600;9.890;2023-04-30T02:20:13;39.87;38.05;41.55;;
60031;Laerm;45901;47.600;9.890;2023-04-30T02:22:41;39.84;37.88;41.96;;
60031;Laerm;45901;47.600;9.890;2023-04-30T02:25:09;39.87;37.52;41.38;;
60031;Laerm;45901;47.600;9.890;2023-04-30T02:27:37;39.90;37.70;41.68;;
60031;Laerm;45901;47.600;9.890;2023-04-30T02:30:06;39.97;38.18;42.09;;
60031;Laerm;45901;47.600;9.890;2023-04-30T02:32:34;39.93;38.05;41.55;;
60031;Laerm;45901;47.600;9.890;2023-04-30T02:35:03;39.88;38.21;41.82;;
60031;Laerm;45901;47.600;9.890;2023-04-30T02:37:31;39.88;37.88;41.46;;
60031;Laerm;45901;47.600;9.890;2023-04-30T02:39:59;39.88;38.21;42.29;;
60031;Laerm;45901;47.600;9.890;2023-04-30T02:42:26;39.93;37.70;43.81;;
60031;Laerm;45901;47.600;9.890;2023-04-30T02:44:54;39.97;38.05;43.19;;
60031;Laerm;45901;47.600;9.890;2023-04-30T02:47:21;39.93;37.87;41.82;;
60031;Laerm;45901;47.600;9.890;2023-04-30T02:49:48;39.89;37.70;41.53;;
60031;Laerm;45901;47.600;9.890;2023-04-30T02:52:17;39.94;37.88;41.61;;
60031;Laerm;45901;47.600;9.890;2023-04-30T02:54:45;39.98;37.88;41.89;;
60031;Laerm;45901;47.600;9.890;2023-04-30T02:57:12;39.99;37.88;42.22;;
60031;Laerm;45901;47.600;9.890;2023-04-30T02:59:40;40.07;38.05;43.54;;
60031;Laerm;45901;47.600;9.890;2023-04-30T03:02:10;40.14;37.88;45.42;;
60031;Laerm;45901;47.600;9.890;2023-04-30T03:04:40;39.96;37.70;41.46;;
60031;Laerm;45901;47.600;9.890;2023-04-30T03:07:08;39.94;37.32;41.61;;
60031;Laerm;45901;47.600;9.890;2023-04-30T03:09:37;39.98;38.05;41.53;;
60031;Laerm;45901;47.600;9.890;2023-04-30T03:12:05;39.98;37.52;41.68;;
60031;Laerm;45901;47.600;9.890;2023-04-30T03:14:32;40.08;38.05;42.88;;
60031;Laerm;45901;47.600;9.890;2023-04-30T03:17:00;40.18;38.21;45.45;;
60031;Laerm;45901;47.600;9.890;2023-04-30T03:19:27;40.31;38.37;46.50;;
60031;Laerm;45901;47.600;9.890;2023-04-30T03:21:54;40.24;38.05;45.91;;
60031;Laerm;45901;47.600;9.890;2023-04-30T03:24:22;40.80;38.05;48.02;;
60031;Laerm;45901;47.600;9.890;2023-04-30T03:26:51;41.00;38.37;51.85;;
60031;Laerm;45901;47.600;9.890;2023-04-30T03:29:19;40.92;38.37;51.67;;
60031;Laerm;45901;47.600;9.890;2023-04-30T03:31:46;40.71;38.37;48.51;;
60031;Laerm;45901;47.600;9.890;2023-04-30T03:34:14;40.42;38.21;50.34;;
60031;Laerm;45901;47.600;9.890;2023-04-30T03:36:41;40.83;38.21;49.79;;
60031;Laerm;45901;47.600;9.890;2023-04-30T03:39:08;40.97;38.52;49.83;;
60031;Laerm;45901;47.600;9.890;2023-04-30T03:41:36;40.60;38.05;49.21;;
60031;Laerm;45901;47.600;9.890;2023-04-30T03:44:05;40.74;37.88;49.23;;
60031;Laerm;45901;47.600;9.890;2023-04-30T03:46:39;40.79;38.05;49.85;;
60031;Laerm;45901;47.600;9.890;2023-04-30T03:49:07;41.01;38.05;55.15;;
60031;Laerm;45901;47.600;9.890;2023-04-30T03:51:36;40.03;38.05;42.16;;
60031;Laerm;45901;47.600;9.890;2023-04-30T03:54:07;39.99;38.05;41.82;;
60031;Laerm;45901;47.600;9.890;2023-04-30T03:56:35;39.98;37.52;41.61;;
60031;Laerm;45901;47.600;9.890;2023-04-30T03:59:04;40.08;38.05;44.65;;
60031;Laerm;45901;47.600;9.890;2023-04-30T04:01:32;40.25;38.21;44.94;;
60031;Laerm;45901;47.600;9.890;2023-04-30T04:04:01;40.19;38.05;46.82;;
60031;Laerm;45901;47.600;9.890;2023-04-30T04:06:28;40.13;38.37;41.89;;
60031;Laerm;45901;47.600;9.890;2023-04-30T04:08:56;40.12;38.21;42.09;;
60031;Laerm;45901;47.600;9.890;2023-04-30T04:11:24;40.00;38.21;41.61;;
60031;Laerm;45901;47.600;9.890;2023-04-30T04:13:51;40.00;37.52;41.82;;
60031;Laerm;45901;47.600;9.890;2023-04-30T04:16:20;39.96;38.05;42.65;;
60031;Laerm;45901;47.600;9.890;2023-04-30T04:18:48;40.01;37.88;43.44;;
60031;Laerm;45901;47.600;9.890;2023-04-30T04:21:15;39.95;37.70;41.75;;
60031;Laerm;45901;47.600;9.890;2023-04-30T04:23:43;39.94;38.05;41.46;;
60031;Laerm;45901;47.600;9.890;2023-04-30T04:26:10;39.98;37.88;42.09;;
60031;Laerm;45901;47.600;9.890;2023-04-30T04:28:38;39.99;38.21;51.17;;
60031;Laerm;45901;47.600;9.890;2023-04-30T04:31:05;40.05;38.21;42.93;;
60031;Laerm;45901;47.600;9.890;2023-04-30T04:33:34;40.10;37.88;41.82;;
60031;Laerm;45901;47.600;9.890;2023-04-30T04:36:02;40.14;38.21;42.16;;
60031;Laerm;45901;47.600;9.890;2023-04-30T04:38:30;40.25;38.21;43.34;;
60031;Laerm;45901;47.600;9.890;2023-04-30T04:40:57;40.07;38.05;42.88;;
60031;Laerm;45901;47.600;9.890;2023-04-30T04:43:25;40.05;38.05;41.61;;
60031;Laerm;45901;47.600;9.890;2023-04-30T04:45:52;40.09;37.70;43.09;;
60031;Laerm;45901;47.600;9.890;2023-04-30T04:48:19;40.06;38.05;44.83;;
60031;Laerm;45901;47.600;9.890;2023-04-30T04:50:48;40.11;38.18;48.60;;
60031;Laerm;45901;47.600;9.890;2023-04-30T04:53:16;40.09;38.21;42.53;;
60031;Laerm;45901;47.600;9.890;2023-04-30T04:55:43;40.03;38.32;41.61;;
60031;Laerm;45901;47.600;9.890;2023-04-30T04:58:10;40.03;37.70;41.75;;
60031;Laerm;45901;47.600;9.890;2023-04-30T05:00:38;40.22;38.21;44.94;;
60031;Laerm;45901;47.600;9.890;2023-04-30T05:03:05;40.02;37.87;44.27;;
60031;Laerm;45901;47.600;9.890;2023-04-30T05:05:34;40.00;37.88;42.09;;
60031;Laerm;45901;47.600;9.890;2023-04-30T05:08:03;40.17;38.05;44.54;;
60031;Laerm;45901;47.600;9.890;2023-04-30T05:10:30;40.00;37.88;41.82;;
60031;Laerm;45901;47.600;9.890;2023-04-30T05:13:02;40.02;38.05;41.75;;
60031;Laerm;45901;47.600;9.890;2023-04-30T05:15:30;40.05;38.05;49.20;;
60031;Laerm;45901;47.600;9.890;2023-04-30T05:17:57;40.03;37.88;41.46;;
60031;Laerm;45901;47.600;9.890;2023-04-30T05:20:25;40.08;37.88;41.82;;
60031;Laerm;45901;47.600;9.890;2023-04-30T05:22:52;40.05;38.21;41.61;;
60031;Laerm;45901;47.600;9.890;2023-04-30T05:25:21;40.09;38.05;41.55;;
60031;Laerm;45901;47.600;9.890;2023-04-30T05:27:49;40.11;37.32;41.75;;
60031;Laerm;45901;47.600;9.890;2023-04-30T05:30:16;40.16;38.37;43.19;;
60031;Laerm;45901;47.600;9.890;2023-04-30T05:32:44;40.17;38.21;44.87;;
60031;Laerm;45901;47.600;9.890;2023-04-30T05:35:15;40.17;38.21;41.68;;
60031;Laerm;45901;47.600;9.890;2023-04-30T05:37:43;40.23;38.52;42.41;;
60031;Laerm;45901;47.600;9.890;2023-04-30T05:40:12;40.18;38.21;42.03;;
60031;Laerm;45901;47.600;9.890;2023-04-30T05:42:41;40.27;38.52;42.09;;
60031;Laerm;45901;47.600;9.890;2023-04-30T05:45:10;40.25;38.52;44.15;;
60031;Laerm;45901;47.600;9.890;2023-04-30T05:47:39;40.28;38.52;46.23;;
60031;Laerm;45901;47.600;9.890;2023-04-30T05:50:09;40.21;38.37;41.96;;
60031;Laerm;45901;47.600;9.890;2023-04-30T05:52:36;40.45;38.81;46.10;;
60031;Laerm;45901;47.600;9.890;2023-04-30T05:55:05;40.32;38.21;42.24;;
60031;Laerm;45901;47.600;9.890;2023-04-30T05:57:32;40.28;37.88;42.22;;
60031;Laerm;45901;47.600;9.890;2023-04-30T06:00:02;40.59;38.21;45.97;;
60031;Laerm;45901;47.600;9.890;2023-04-30T06:02:31;40.32;38.05;42.47;;
60031;Laerm;45901;47.600;9.890;2023-04-30T06:04:58;40.32;38.37;43.58;;
60031;Laerm;45901;47.600;9.890;2023-04-30T06:07:27;40.31;38.52;42.09;;
60031;Laerm;45901;47.600;9.890;2023-04-30T06:09:55;40.56;38.81;45.20;;
60031;Laerm;45901;47.600;9.890;2023-04-30T06:12:23;40.48;38.52;41.96;;
60031;Laerm;45901;47.600;9.890;2023-04-30T06:14:51;40.55;38.52;42.71;;
60031;Laerm;45901;47.600;9.890;2023-04-30T06:17:20;40.58;38.95;43.29;;
60031;Laerm;45901;47.600;9.890;2023-04-30T06:19:47;40.53;38.81;43.49;;
60031;Laerm;45901;47.600;9.890;2023-04-30T06:22:15;40.56;38.81;42.93;;
60031;Laerm;45901;47.600;9.890;2023-04-30T06:24:42;40.56;38.37;43.39;;
60031;Laerm;45901;47.600;9.890;2023-04-30T06:27:11;40.52;38.67;42.53;;
60031;Laerm;45901;47.600;9.890;2023-04-30T06:29:38;40.58;38.21;49.38;;
60031;Laerm;45901;47.600;9.890;2023-04-30T06:32:06;40.57;38.52;44.39;;
60031;Laerm;45901;47.600;9.890;2023-04-30T06:34:35;40.57;38.81;42.47;;
60031;Laerm;45901;47.600;9.890;2023-04-30T06:37:02;40.56;38.37;45.27;;
60031;Laerm;45901;47.600;9.890;2023-04-30T06:39:30;40.50;38.67;44.43;;
60031;Laerm;45901;47.600;9.890;2023-04-30T06:41:58;40.44;38.67;42.03;;
60031;Laerm;45901;47.600;9.890;2023-04-30T06:44:26;40.50;38.37;43.29;;
60031;Laerm;45901;47.600;9.890;2023-04-30T06:46:54;40.72;38.67;54.21;;
60031;Laerm;45901;47.600;9.890;2023-04-30T06:49:21;40.46;38.81;44.76;;
60031;Laerm;45901;47.600;9.890;2023-04-30T06:51:50;40.45;38.37;41.89;;
60031;Laerm;45901;47.600;9.890;2023-04-30T06:54:17;40.53;38.67;44.07;;
60031;Laerm;45901;47.600;9.890;2023-04-30T06:56:47;40.51;38.81;42.59;;
60031;Laerm;45901;47.600;9.890;2023-04-30T06:59:15;40.47;38.52;42.29;;
60031;Laerm;45901;47.600;9.890;2023-04-30T07:01:42;40.79;38.81;45.48;;
60031;Laerm;45901;47.600;9.890;2023-04-30T07:04:10;40.59;38.95;43.24;;
60031;Laerm;45901;47.600;9.890;2023-04-30T07:06:37;40.65;38.67;47.80;;
60031;Laerm;45901;47.600;9.890;2023-04-30T07:09:06;40.65;38.95;42.65;;
60031;Laerm;45901;47.600;9.890;2023-04-30T07:11:34;40.72;38.81;43.34;;
60031;Laerm;45901;47.600;9.890;2023-04-30T07:14:01;40.69;38.67;44.76;;
60031;Laerm;45901;47.600;9.890;2023-04-30T07:16:29;40.66;38.37;43.24;;
60031;Laerm;45901;47.600;9.890;2023-04-30T07:18:58;40.68;38.87;44.11;;
60031;Laerm;45901;47.600;9.890;2023-04-30T07:21:26;40.70;38.95;43.04;;
60031;Laerm;45901;47.600;9.890;2023-04-30T07:23:54;40.84;38.52;54.49;;
60031;Laerm;45901;47.600;9.890;2023-04-30T07:26:26;40.83;38.81;51.55;;
60031;Laerm;45901;47.600;9.890;2023-04-30T07:28:54;40.65;39.08;42.71;;
60031;Laerm;45901;47.600;9.890;2023-04-30T07:31:21;40.72;38.81;44.83;;
60031;Laerm;45901;47.600;9.890;2023-04-30T07:33:49;40.73;38.95;42.53;;
60031;Laerm;45901;47.600;9.890;2023-04-30T07:36:17;40.72;38.67;44.62;;
60031;Laerm;45901;47.600;9.890;2023-04-30T07:38:45;40.72;38.81;42.76;;
60031;Laerm;45901;47.600;9.890;2023-04-30T07:41:13;40.62;38.95;42.41;;
60031;Laerm;45901;47.600;9.890;2023-04-30T07:43:41;40.80;38.67;48.92;;
60031;Laerm;45901;47.600;9.890;2023-04-30T07:46:09;40.81;38.67;44.87;;
60031;Laerm;45901;47.600;9.890;2023-04-30T07:48:36;40.74;38.67;42.59;;
60031;Laerm;45901;47.600;9.890;2023-04-30T07:51:04;40.84;38.67;43.99;;
60031;Laerm;45901;47.600;9.890;2023-04-30T07:53:31;40.84;39.08;43.86;;
60031;Laerm;45901;47.600;9.890;2023-04-30T07:55:59;40.85;39.08;44.11;;
60031;Laerm;45901;47.600;9.890;2023-04-30T07:58:26;40.94;38.95;43.72;;
60031;Laerm;45901;47.600;9.890;2023-04-30T08:00:55;41.42;39.34;48.90;;
60031;Laerm;45901;47.600;9.890;2023-04-30T08:03:23;40.81;38.95;44.03;;
60031;Laerm;45901;47.600;9.890;2023-04-30T08:05:51;40.85;39.08;45.14;;
60031;Laerm;45901;47.600;9.890;2023-04-30T08:08:19;40.81;38.95;44.31;;
60031;Laerm;45901;47.600;9.890;2023-04-30T08:10:46;40.95;39.08;44.39;;
60031;Laerm;45901;47.600;9.890;2023-04-30T08:13:13;40.89;38.81;44.47;;
60031;Laerm;45901;47.600;9.890;2023-04-30T08:15:41;40.82;38.52;44.65;;
60031;Laerm;45901;47.600;9.890;2023-04-30T08:18:10;40.94;38.95;43.81;;
60031;Laerm;45901;47.600;9.890;2023-04-30T08:20:38;40.85;38.81;47.68;;
60031;Laerm;45901;47.600;9.890;2023-04-30T08:23:05;40.70;38.74;42.76;;
60031;Laerm;45901;47.600;9.890;2023-04-30T08:25:32;40.66;38.21;42.29;;
60031;Laerm;45901;47.600;9.890;2023-04-30T08:28:00;40.72;38.67;44.62;;
60031;Laerm;45901;47.600;9.890;2023-04-30T08:30:27;41.06;38.21;52.86;;
60031;Laerm;45901;47.600;9.890;2023-04-30T08:32:55;40.64;38.37;43.04;;
60031;Laerm;45901;47.600;9.890;2023-04-30T08:35:24;41.12;38.81;56.10;;
60031;Laerm;45901;47.600;9.890;2023-04-30T08:37:51;41.68;38.95;57.50;;
60031;Laerm;45901;47.600;9.890;2023-04-30T08:40:19;40.70;38.67;46.62;;
60031;Laerm;45901;47.600;9.890;2023-04-30T08:42:59;40.88;38.52;44.73;;
60031;Laerm;45901;47.600;9.890;2023-04-30T08:45:31;40.81;38.52;49.24;;
60031;Laerm;45901;47.600;9.890;2023-04-30T08:48:00;40.58;37.88;43.09;;
60031;Laerm;45901;47.600;9.890;2023-04-30T08:50:29;40.69;38.67;44.73;;
60031;Laerm;45901;47.600;9.890;2023-04-30T08:52:58;40.53;38.52;42.16;;
60031;Laerm;45901;47.600;9.890;2023-04-30T08:55:27;40.59;38.52;42.47;;
60031;Laerm;45901;47.600;9.890;2023-04-30T08:57:54;40.72;38.21;45.23;;
60031;Laerm;45901;47.600;9.890;2023-04-30T09:00:22;41.51;38.67;50.68;;
60031;Laerm;45901;47.600;9.890;2023-04-30T09:02:49;40.80;38.67;47.80;;
60031;Laerm;45901;47.600;9.890;2023-04-30T09:05:17;40.56;38.32;43.94;;
60031;Laerm;45901;47.600;9.890;2023-04-30T09:07:45;40.70;37.88;45.51;;
60031;Laerm;45901;47.600;9.890;2023-04-30T09:10:18;41.03;38.67;62.37;;
60031;Laerm;45901;47.600;9.890;2023-04-30T09:12:58;40.71;38.37;46.95;;
60031;Laerm;45901;47.600;9.890;2023-04-30T09:15:27;40.72;38.37;48.66;;
60031;Laerm;45901;47.600;9.890;2023-04-30T09:18:09;40.71;38.52;50.02;;
60031;Laerm;45901;47.600;9.890;2023-04-30T09:20:38;40.54;38.37;47.55;;
60031;Laerm;45901;47.600;9.890;2023-04-30T09:23:21;40.77;38.52;46.07;;
60031;Laerm;45901;47.600;9.890;2023-04-30T09:25:48;40.75;38.05;48.44;;
60031;Laerm;45901;47.600;9.890;2023-04-30T09:28:16;40.72;38.37;46.10;;
60031;Laerm;45901;47.600;9.890;2023-04-30T09:30:49;40.66;38.37;48.87;;
60031;Laerm;45901;47.600;9.890;2023-04-30T09:33:16;40.49;38.52;44.87;;
60031;Laerm;45901;47.600;9.890;2023-04-30T09:35:44;40.44;38.52;47.68;;
60031;Laerm;45901;47.600;9.890;2023-04-30T09:38:27;40.61;38.37;44.62;;
60031;Laerm;45901;47.600;9.890;2023-04-30T09:40:57;40.61;38.37;45.04;;
60031;Laerm;45901;47.600;9.890;2023-04-30T09:43:26;40.39;38.21;42.82;;
60031;Laerm;45901;47.600;9.890;2023-04-30T09:45:53;40.48;38.37;50.51;;
60031;Laerm;45901;47.600;9.890;2023-04-30T09:48:22;40.35;38.52;42.09;;
60031;Laerm;45901;47.600;9.890;2023-04-30T09:50:50;40.33;38.37;42.98;;
60031;Laerm;45901;47.600;9.890;2023-04-30T09:53:19;40.38;38.52;43.24;;
60031;Laerm;45901;47.600;9.890;2023-04-30T09:55:49;40.29;38.52;42.22;;
60031;Laerm;45901;47.600;9.890;2023-04-30T09:58:18;40.38;38.05;45.36;;
60031;Laerm;45901;47.600;9.890;2023-04-30T10:00:46;41.51;38.52;50.95;;
60031;Laerm;45901;47.600;9.890;2023-04-30T10:03:14;40.39;38.37;42.09;;
60031;Laerm;45901;47.600;9.890;2023-04-30T10:05:44;40.68;38.52;44.51;;
60031;Laerm;45901;47.600;9.890;2023-04-30T10:08:18;40.48;38.05;44.76;;
60031;Laerm;45901;47.600;9.890;2023-04-30T10:10:57;40.70;38.52;46.69;;
60031;Laerm;45901;47.600;9.890;2023-04-30T10:13:30;40.41;38.52;46.50;;
60031;Laerm;45901;47.600;9.890;2023-04-30T10:16:02;40.62;38.21;46.40;;
60031;Laerm;45901;47.600;9.890;2023-04-30T10:18:33;40.45;38.05;43.34;;
60031;Laerm;45901;47.600;9.890;2023-04-30T10:21:05;40.43;38.21;42.93;;
60031;Laerm;45901;47.600;9.890;2023-04-30T10:23:36;40.52;38.21;55.24;;
60031;Laerm;45901;47.600;9.890;2023-04-30T10:26:06;40.61;38.32;45.14;;
60031;Laerm;45901;47.600;9.890;2023-04-30T10:28:34;40.62;38.37;50.29;;
60031;Laerm;45901;47.600;9.890;2023-04-30T10:31:02;40.42;38.37;46.87;;
60031;Laerm;45901;47.600;9.890;2023-04-30T10:33:39;40.36;38.21;43.77;;
60031;Laerm;45901;47.600;9.890;2023-04-30T10:36:23;40.23;37.70;41.82;;
60031;Laerm;45901;47.600;9.890;2023-04-30T10:38:53;40.48;38.21;46.23;;
60031;Laerm;45901;47.600;9.890;2023-04-30T10:41:22;40.51;37.88;47.84;;
60031;Laerm;45901;47.600;9.890;2023-04-30T10:43:56;40.50;38.37;43.90;;
60031;Laerm;45901;47.600;9.890;2023-04-30T10:46:25;40.43;37.88;46.52;;
60031;Laerm;45901;47.600;9.890;2023-04-30T10:48:53;40.39;38.05;46.02;;
60031;Laerm;45901;47.600;9.890;2023-04-30T10:51:21;40.52;38.05;47.28;;
60031;Laerm;45901;47.600;9.890;2023-04-30T10:53:50;40.19;38.21;48.94;;
60031;Laerm;45901;47.600;9.890;2023-04-30T10:56:32;40.35;38.05;46.61;;
60031;Laerm;45901;47.600;9.890;2023-04-30T10:59:00;40.19;38.21;41.75;;
60031;Laerm;45901;47.600;9.890;2023-04-30T11:01:28;40.42;37.52;48.37;;
60031;Laerm;45901;47.600;9.890;2023-04-30T11:04:07;40.38;38.52;45.01;;
60031;Laerm;45901;47.600;9.890;2023-04-30T11:06:55;40.35;38.21;44.58;;
60031;Laerm;45901;47.600;9.890;2023-04-30T11:09:40;40.69;38.21;48.12;;
60031;Laerm;45901;47.600;9.890;2023-04-30T11:12:14;40.53;37.88;44.23;;
60031;Laerm;45901;47.600;9.890;2023-04-30T11:14:44;40.77;38.21;46.18;;
60031;Laerm;45901;47.600;9.890;2023-04-30T11:17:20;40.33;37.52;44.31;;
60031;Laerm;45901;47.600;9.890;2023-04-30T11:19:49;40.49;37.87;43.89;;
60031;Laerm;45901;47.600;9.890;2023-04-30T11:22:20;40.45;37.88;50.06;;
60031;Laerm;45901;47.600;9.890;2023-04-30T11:25:03;40.36;38.21;43.24;;
60031;Laerm;45901;47.600;9.890;2023-04-30T11:27:34;40.38;38.21;43.86;;
60031;Laerm;45901;47.600;9.890;2023-04-30T11:30:03;40.29;38.37;48.45;;
60031;Laerm;45901;47.600;9.890;2023-04-30T11:32:37;40.24;38.05;41.89;;
60031;Laerm;45901;47.600;9.890;2023-04-30T11:35:06;40.46;38.21;44.80;;
60031;Laerm;45901;47.600;9.890;2023-04-30T11:37:36;40.20;38.21;42.22;;
60031;Laerm;45901;47.600;9.890;2023-04-30T11:40:06;41.32;38.21;56.03;;
60031;Laerm;45901;47.600;9.890;2023-04-30T11:42:38;40.59;38.37;54.49;;
60031;Laerm;45901;47.600;9.890;2023-04-30T11:45:08;41.92;38.05;52.51;;
60031;Laerm;45901;47.600;9.890;2023-04-30T11:47:41;40.68;38.37;53.24;;
60031;Laerm;45901;47.600;9.890;2023-04-30T11:50:11;40.39;38.05;45.94;;
60031;Laerm;45901;47.600;9.890;2023-04-30T11:52:39;40.43;38.21;46.93;;
60031;Laerm;45901;47.600;9.890;2023-04-30T11:55:12;40.27;38.21;44.76;;
60031;Laerm;45901;47.600;9.890;2023-04-30T11:57:44;40.20;38.05;42.09;;
60031;Laerm;45901;47.600;9.890;2023-04-30T12:00:14;41.15;38.05;50.70;;
60031;Laerm;45901;47.600;9.890;2023-04-30T12:02:44;40.36;36.91;44.58;;
60031;Laerm;45901;47.600;9.890;2023-04-30T12:05:14;40.34;38.18;45.27;;
60031;Laerm;45901;47.600;9.890;2023-04-30T12:07:50;40.37;38.05;46.25;;
60031;Laerm;45901;47.600;9.890;2023-04-30T12:10:21;40.60;38.05;45.80;;
60031;Laerm;45901;47.600;9.890;2023-04-30T12:12:51;40.32;38.21;42.41;;
60031;Laerm;45901;47.600;9.890;2023-04-30T12:15:20;40.68;38.67;47.74;;
60031;Laerm;45901;47.600;9.890;2023-04-30T12:17:52;41.25;38.21;45.66;;
60031;Laerm;45901;47.600;9.890;2023-04-30T12:20:21;40.17;37.88;42.22;;
60031;Laerm;45901;47.600;9.890;2023-04-30T12:22:49;40.25;38.05;41.96;;
60031;Laerm;45901;47.600;9.890;2023-04-30T12:25:20;40.19;38.21;41.89;;
60031;Laerm;45901;47.600;9.890;2023-04-30T12:27:51;40.50;38.05;48.96;;
60031;Laerm;45901;47.600;9.890;2023-04-30T12:30:20;40.99;37.52;54.97;;
60031;Laerm;45901;47.600;9.890;2023-04-30T12:32:50;40.54;38.05;49.23;;
60031;Laerm;45901;47.600;9.890;2023-04-30T12:35:19;40.13;37.53;49.53;;
60031;Laerm;45901;47.600;9.890;2023-04-30T12:37:49;40.93;38.05;63.18;;
60031;Laerm;45901;47.600;9.890;2023-04-30T12:40:18;40.88;38.37;50.96;;
60031;Laerm;45901;47.600;9.890;2023-04-30T12:42:46;40.90;38.05;56.10;;
60031;Laerm;45901;47.600;9.890;2023-04-30T12:45:46;40.93;37.52;46.02;;
60031;Laerm;45901;47.600;9.890;2023-04-30T12:48:17;40.23;37.88;44.65;;
60031;Laerm;45901;47.600;9.890;2023-04-30T12:50:53;40.24;38.05;41.96;;
60031;Laerm;45901;47.600;9.890;2023-04-30T12:53:24;40.30;37.52;42.79;;
60031;Laerm;45901;47.600;9.890;2023-04-30T12:56:09;40.33;38.05;44.94;;
60031;Laerm;45901;47.600;9.890;2023-04-30T12:58:37;40.23;37.88;43.09;;
60031;Laerm;45901;47.600;9.890;2023-04-30T13:01:10;40.46;38.05;50.51;;
60031;Laerm;45901;47.600;9.890;2023-04-30T13:03:38;40.21;37.52;43.46;;
60031;Laerm;45901;47.600;9.890;2023-04-30T13:06:06;40.20;38.05;43.24;;
60031;Laerm;45901;47.600;9.890;2023-04-30T13:08:35;40.14;38.05;48.91;;
60031;Laerm;45901;47.600;9.890;2023-04-30T13:11:02;40.82;38.21;48.20;;
60031;Laerm;45901;47.600;9.890;2023-04-30T13:13:30;40.23;38.21;44.65;;
60031;Laerm;45901;47.600;9.890;2023-04-30T13:15:58;40.20;38.21;48.20;;
60031;Laerm;45901;47.600;9.890;2023-04-30T13:18:28;40.13;37.88;42.93;;
60031;Laerm;45901;47.600;9.890;2023-04-30T13:20:56;40.23;37.70;43.99;;
60031;Laerm;45901;47.600;9.890;2023-04-30T13:23:23;40.21;37.88;43.19;;
60031;Laerm;45901;47.600;9.890;2023-04-30T13:25:51;40.30;38.21;44.03;;
60031;Laerm;45901;47.600;9.890;2023-04-30T13:28:18;40.28;37.88;42.59;;
60031;Laerm;45901;47.600;9.890;2023-04-30T13:30:46;40.39;38.05;51.44;;
60031;Laerm;45901;47.600;9.890;2023-04-30T13:33:13;40.24;38.05;44.76;;
60031;Laerm;45901;47.600;9.890;2023-04-30T13:35:42;40.10;37.70;41.89;;
60031;Laerm;45901;47.600;9.890;2023-04-30T13:38:11;40.28;37.88;46.10;;
60031;Laerm;45901;47.600;9.890;2023-04-30T13:40:39;40.04;37.70;41.94;;
60031;Laerm;45901;47.600;9.890;2023-04-30T13:43:06;40.98;38.37;48.60;;
60031;Laerm;45901;47.600;9.890;2023-04-30T13:45:33;40.26;37.70;46.92;;
60031;Laerm;45901;47.600;9.890;2023-04-30T13:48:01;40.18;37.70;42.98;;
60031;Laerm;45901;47.600;9.890;2023-04-30T13:50:28;40.12;38.21;43.19;;
60031;Laerm;45901;47.600;9.890;2023-04-30T13:52:57;40.27;37.32;47.72;;
60031;Laerm;45901;47.600;9.890;2023-04-30T13:55:25;40.29;38.05;46.59;;
60031;Laerm;45901;47.600;9.890;2023-04-30T13:57:52;40.60;37.70;49.92;;